Weather at Greater Cumberland Regional Airport

Public forecast

Using degrees Fahrenheit for public forecast. Weather courtesy of forecast.io.

Current aviation weather report (METAR) for Greater Cumberland Regional Airport

Retrieved 2021/03/04 01:35 UTC (57 minutes ago):

KCBE 040135Z AUTO 19005KT 10SM CLR 10/M05 A2994 RMK AO2 T00961052

Closest aviation forecast (TAF) to Greater Cumberland Regional Airport

Closest forecast is Eastern WV Regional Airport/Shepherd Field, 38.2 nm (70.7 km) ESE. Retrieved 2021-03-04 00:42 UTC (2 hours ago):

TAF KMRB 032340Z 0400/0424 26009KT P6SM SKC FM040800 32007KT P6SM SCT070 FM041400 32013G21KT P6SM SCT035 FM041800 32015G26KT P6SM BKN045